Hlavní strana
METAR-TAF:

METAR-TAF

Letiště :

Letiště Kodaň

Kodaň, Dánsko

zeměpisná šířka: 55-37N, zeměpisná délka: 012-39E, výška: 5 m

Aktuální stav počasí

Zpráva byla vytvořena před 39 minutami, v 15:50 UTC
Jihovýchodní vítr 16 kt
Teplota 5°C
Vlhkost vzduchu 81%
Tlak 996 hPa
Viditelnost 10 km a více

METAR: EKCH 041550Z AUTO 13016KT 9999 SCT015/// BKN018/// BKN034/// 05/02 Q0996 TEMPO 15020G30KT

Čas: 17:29 (16:29 UTC)

Předpověď počasí

Zpráva byla vytvořena před 5 hodinami a 26 minutami, v 11:03 UTC
Předpověď platná od 04 v 12 UTC do 05 v 12 UTC
Jihovýchodní vítr 15 kt
Viditelnost 10 km a více
Oblačno až skoro zataženo ve výšce 2000 ft
Dočasný
od 04 v 12 UTC do 04 v 15 UTC
Jihovýchodní vítr 20 kt s nárazy do 30 kt
Dočasný
od 05 v 09 UTC do 05 v 12 UTC
Oblačno až skoro zataženo ve výšce 1200 ft

TAF: EKCH 041103Z 0412/0512 14015KT 9999 BKN020 TEMPO 0412/0415 13020G30KT TEMPO 0509/0512 BKN012

Stav a předpovědi počasí z více než 4 000 letišť (zprávy METAR a TAF).

Červené a žluté tečky na mapě představují dostupné meteorologické stanice.

Když kurzor umístíte na tečku, zobrazí se název stanice.

Pak kliknutím zobrazíte stav a předpověď počasí.

Chcete-li změnit mapu, kliknutím na zelené tlačítko se znaménkem +mapu přiblížíte, kliknutím na zelené tlačítko se znaménkem – mapu oddálíte a kliknutím na zelené šipky přejdete na sousední mapy.


METAR-TAF: